Terminal Aerodrome Forecast
Issued by NWS

Home | Current Version | Previous Version | Text Only | Print | Product List | Glossary On
Versions: 1 2 3 4 5 6 7 8 9 10 11 12 13 14 15 16 17 18 19 20 21 22 23
000
FTUS45 KRIW 202300
TAFPNA
TAF
KPNA 202326Z 2100/2124 29010G18KT P6SM VCTS SCT060CB BKN100
     FM210230 VRB06KT P6SM VCSH SCT050 BKN090
     FM210700 30006KT P6SM SCT040 BKN200
      TEMPO 2111/2115 5SM BR BKN008
     FM211900 VRB06KT P6SM VCTS SCT050CB BKN100
      AMD LTD TO CLD VIS AND WIND=

USA.gov is the U.S. government's official web portal to all federal, state and local government web resources and services.